RPC4114 RPVM-RPVM
Flight info
| Callsign | RPC4114 |
|---|---|
| Flight time | 0h 44m |
| Altitude | 1500 |
| Route | IPATA2R IPATA W25 BATAY BATAY3P |
| Aircraft | A321/H-SADE1E2E3GHIJ3J5M1P2RWXY/LB2D1 |
Departure
| Time | 2026-05-05 15:48 |
|---|---|
| Airport | Mactan Cebu International Airport (RPVM) |
Arrival
| Time | 2026-05-05 16:33 |
|---|---|
| Airport | Mactan Cebu International Airport (RPVM) |
| Time | Latitude | Longitude | Altitude | Speed | Heading |
|---|---|---|---|---|---|
| 2026-05-05 15:38 | 10.30222 | 123.97694 | 45 ft | 0 kts | 225° |
| 2026-05-05 15:41 | 10.30220 | 123.97691 | 45 ft | 2 kts | 238° |
| 2026-05-05 15:41 | 10.30207 | 123.97668 | 45 ft | 5 kts | 241° |
| 2026-05-05 15:42 | 10.30180 | 123.97626 | 45 ft | 7 kts | 224° |
| 2026-05-05 15:42 | 10.30139 | 123.97586 | 45 ft | 8 kts | 224° |
| 2026-05-05 15:42 | 10.30093 | 123.97540 | 45 ft | 9 kts | 225° |
| 2026-05-05 15:42 | 10.30051 | 123.97491 | 45 ft | 8 kts | 249° |
| 2026-05-05 15:43 | 10.30076 | 123.97437 | 45 ft | 8 kts | 316° |
| 2026-05-05 15:43 | 10.30089 | 123.97424 | 45 ft | 0 kts | 315° |
| 2026-05-05 15:46 | 10.30117 | 123.97395 | 45 ft | 11 kts | 315° |
| 2026-05-05 15:46 | 10.30170 | 123.97361 | 45 ft | 8 kts | 13° |
| 2026-05-05 15:46 | 10.30189 | 123.97372 | 45 ft | 0 kts | 47° |
| 2026-05-05 15:47 | 10.30219 | 123.97404 | 45 ft | 28 kts | 46° |
| 2026-05-05 15:48 | 10.30586 | 123.97772 | 46 ft | 117 kts | 45° |
| 2026-05-05 15:48 | 10.31337 | 123.98525 | 271 ft | 168 kts | 45° |
| 2026-05-05 15:48 | 10.32210 | 123.99416 | 776 ft | 195 kts | 45° |
| 2026-05-05 15:48 | 10.33257 | 124.00472 | 978 ft | 225 kts | 45° |
| 2026-05-05 15:49 | 10.34399 | 124.01643 | 1225 ft | 237 kts | 49° |
| 2026-05-05 15:49 | 10.35168 | 124.03139 | 1430 ft | 239 kts | 77° |
| 2026-05-05 15:49 | 10.35077 | 124.04730 | 1473 ft | 217 kts | 109° |
| 2026-05-05 15:49 | 10.34206 | 124.05876 | 1444 ft | 198 kts | 145° |
| 2026-05-05 15:50 | 10.32962 | 124.06190 | 1483 ft | 175 kts | 185° |
| 2026-05-05 15:50 | 10.31931 | 124.05679 | 1441 ft | 156 kts | 219° |
| 2026-05-05 15:50 | 10.31140 | 124.04946 | 1471 ft | 154 kts | 224° |
| 2026-05-05 15:50 | 10.30386 | 124.04192 | 1454 ft | 147 kts | 225° |
| 2026-05-05 15:51 | 10.29659 | 124.03459 | 1449 ft | 144 kts | 225° |
| 2026-05-05 15:51 | 10.28944 | 124.02737 | 1456 ft | 143 kts | 225° |
| 2026-05-05 15:51 | 10.28243 | 124.02029 | 1459 ft | 143 kts | 225° |
| 2026-05-05 15:51 | 10.27529 | 124.01308 | 1461 ft | 143 kts | 225° |
| 2026-05-05 15:52 | 10.26829 | 124.00601 | 1459 ft | 142 kts | 225° |
| 2026-05-05 15:52 | 10.26118 | 123.99885 | 1458 ft | 142 kts | 225° |
| 2026-05-05 15:52 | 10.25411 | 123.99169 | 1459 ft | 143 kts | 225° |
| 2026-05-05 15:52 | 10.24706 | 123.98459 | 1446 ft | 140 kts | 225° |
| 2026-05-05 15:53 | 10.24021 | 123.97768 | 1224 ft | 139 kts | 225° |
| 2026-05-05 15:53 | 10.23319 | 123.97060 | 1172 ft | 141 kts | 225° |
| 2026-05-05 15:53 | 10.22801 | 123.96229 | 1145 ft | 140 kts | 264° |
| 2026-05-05 15:53 | 10.23070 | 123.95326 | 1162 ft | 133 kts | 313° |
| 2026-05-05 15:54 | 10.23711 | 123.94646 | 1176 ft | 133 kts | 319° |
| 2026-05-05 15:54 | 10.24360 | 123.93987 | 1004 ft | 129 kts | 319° |
| 2026-05-05 15:54 | 10.25005 | 123.93339 | 783 ft | 130 kts | 321° |
| 2026-05-05 15:54 | 10.25792 | 123.92967 | 762 ft | 128 kts | 6° |
| 2026-05-05 15:55 | 10.26497 | 123.93479 | 798 ft | 131 kts | 56° |
| 2026-05-05 15:55 | 10.27040 | 123.94231 | 793 ft | 133 kts | 47° |
| 2026-05-05 15:55 | 10.27435 | 123.94634 | 684 ft | 132 kts | 44° |
| 2026-05-05 15:55 | 10.27553 | 123.94750 | 658 ft | 132 kts | 44° |
| 2026-05-05 15:56 | 10.27715 | 123.94910 | 623 ft | 132 kts | 44° |
| 2026-05-05 15:56 | 10.28366 | 123.95573 | 634 ft | 132 kts | 48° |
| 2026-05-05 15:56 | 10.29013 | 123.96242 | 692 ft | 132 kts | 44° |
| 2026-05-05 15:56 | 10.29661 | 123.96917 | 704 ft | 132 kts | 45° |
| 2026-05-05 15:57 | 10.30308 | 123.97574 | 709 ft | 132 kts | 45° |
| 2026-05-05 15:57 | 10.30963 | 123.98237 | 717 ft | 132 kts | 44° |
| 2026-05-05 15:57 | 10.31551 | 123.98954 | 710 ft | 133 kts | 66° |
| 2026-05-05 15:57 | 10.31475 | 123.99869 | 690 ft | 136 kts | 120° |
| 2026-05-05 15:58 | 10.30675 | 124.00339 | 686 ft | 143 kts | 175° |
| 2026-05-05 15:58 | 10.29744 | 123.99966 | 920 ft | 145 kts | 218° |
| 2026-05-05 15:58 | 10.28992 | 123.99275 | 951 ft | 143 kts | 225° |
| 2026-05-05 15:58 | 10.28287 | 123.98570 | 958 ft | 142 kts | 225° |
| 2026-05-05 15:59 | 10.27584 | 123.97861 | 961 ft | 142 kts | 225° |
| 2026-05-05 15:59 | 10.26880 | 123.97149 | 961 ft | 142 kts | 225° |
| 2026-05-05 15:59 | 10.26169 | 123.96430 | 963 ft | 142 kts | 225° |
| 2026-05-05 15:59 | 10.25461 | 123.95718 | 964 ft | 142 kts | 225° |
| 2026-05-05 16:00 | 10.24762 | 123.95014 | 965 ft | 142 kts | 225° |
| 2026-05-05 16:00 | 10.24054 | 123.94302 | 963 ft | 142 kts | 225° |
| 2026-05-05 16:00 | 10.23459 | 123.93523 | 948 ft | 140 kts | 254° |
| 2026-05-05 16:00 | 10.23587 | 123.92587 | 950 ft | 133 kts | 311° |
| 2026-05-05 16:01 | 10.24378 | 123.92207 | 967 ft | 128 kts | 7° |
| 2026-05-05 16:01 | 10.25153 | 123.92641 | 996 ft | 131 kts | 42° |
| 2026-05-05 16:01 | 10.25853 | 123.93249 | 1010 ft | 132 kts | 40° |
| 2026-05-05 16:01 | 10.26556 | 123.93868 | 974 ft | 132 kts | 43° |
| 2026-05-05 16:02 | 10.27237 | 123.94499 | 837 ft | 132 kts | 43° |
| 2026-05-05 16:02 | 10.27901 | 123.95142 | 614 ft | 132 kts | 44° |
| 2026-05-05 16:02 | 10.28576 | 123.95774 | 406 ft | 131 kts | 43° |
| 2026-05-05 16:02 | 10.29233 | 123.96420 | 234 ft | 129 kts | 44° |
| 2026-05-05 16:03 | 10.29865 | 123.97049 | 55 ft | 121 kts | 44° |
| 2026-05-05 16:03 | 10.30406 | 123.97592 | 46 ft | 104 kts | 45° |
| 2026-05-05 16:03 | 10.31091 | 123.98280 | 415 ft | 157 kts | 44° |
| 2026-05-05 16:03 | 10.31863 | 123.99052 | 953 ft | 166 kts | 44° |
| 2026-05-05 16:04 | 10.32647 | 123.99835 | 929 ft | 145 kts | 44° |
| 2026-05-05 16:04 | 10.33314 | 124.00503 | 908 ft | 126 kts | 44° |
| 2026-05-05 16:04 | 10.33808 | 124.01241 | 931 ft | 132 kts | 76° |
| 2026-05-05 16:04 | 10.33559 | 124.02118 | 935 ft | 136 kts | 131° |
| 2026-05-05 16:05 | 10.32667 | 124.02426 | 938 ft | 140 kts | 187° |
| 2026-05-05 16:05 | 10.31819 | 124.01933 | 969 ft | 142 kts | 222° |
| 2026-05-05 16:05 | 10.31099 | 124.01241 | 968 ft | 142 kts | 225° |
| 2026-05-05 16:05 | 10.30394 | 124.00542 | 965 ft | 142 kts | 225° |
| 2026-05-05 16:06 | 10.29679 | 123.99830 | 963 ft | 141 kts | 225° |
| 2026-05-05 16:06 | 10.28974 | 123.99125 | 962 ft | 141 kts | 225° |
| 2026-05-05 16:06 | 10.28214 | 123.98476 | 952 ft | 141 kts | 203° |
| 2026-05-05 16:06 | 10.27282 | 123.98492 | 946 ft | 135 kts | 148° |
| 2026-05-05 16:07 | 10.26727 | 123.99191 | 953 ft | 128 kts | 95° |
| 2026-05-05 16:07 | 10.27007 | 124.00015 | 971 ft | 130 kts | 41° |
| 2026-05-05 16:07 | 10.27881 | 124.00220 | 968 ft | 134 kts | 347° |
| 2026-05-05 16:07 | 10.28547 | 123.99584 | 947 ft | 137 kts | 290° |
| 2026-05-05 16:08 | 10.28417 | 123.98644 | 951 ft | 141 kts | 237° |
| 2026-05-05 16:08 | 10.27757 | 123.97887 | 975 ft | 141 kts | 225° |
| 2026-05-05 16:08 | 10.27057 | 123.97176 | 965 ft | 141 kts | 225° |
| 2026-05-05 16:08 | 10.26354 | 123.96468 | 966 ft | 141 kts | 225° |
| 2026-05-05 16:09 | 10.25651 | 123.95760 | 964 ft | 141 kts | 225° |
| 2026-05-05 16:09 | 10.24945 | 123.95049 | 963 ft | 141 kts | 225° |
| 2026-05-05 16:09 | 10.24246 | 123.94346 | 964 ft | 141 kts | 225° |
| 2026-05-05 16:09 | 10.23545 | 123.93639 | 965 ft | 141 kts | 225° |
| 2026-05-05 16:10 | 10.22919 | 123.92868 | 951 ft | 140 kts | 250° |
| 2026-05-05 16:10 | 10.22978 | 123.91936 | 948 ft | 133 kts | 307° |
| 2026-05-05 16:10 | 10.23724 | 123.91492 | 964 ft | 127 kts | 2° |
| 2026-05-05 16:10 | 10.24527 | 123.91860 | 996 ft | 130 kts | 40° |
| 2026-05-05 16:11 | 10.25194 | 123.92492 | 987 ft | 132 kts | 44° |
| 2026-05-05 16:11 | 10.27131 | 123.94386 | 866 ft | 131 kts | 42° |
| 2026-05-05 16:12 | 10.27172 | 123.94424 | 861 ft | 131 kts | 42° |
| 2026-05-05 16:12 | 10.28514 | 123.95699 | 431 ft | 131 kts | 43° |
| 2026-05-05 16:13 | 10.30340 | 123.97523 | 46 ft | 102 kts | 45° |
| 2026-05-05 16:13 | 10.30963 | 123.98154 | 252 ft | 152 kts | 44° |
| 2026-05-05 16:13 | 10.31675 | 123.98856 | 869 ft | 141 kts | 44° |
| 2026-05-05 16:14 | 10.32967 | 124.00137 | 947 ft | 124 kts | 44° |
| 2026-05-05 16:14 | 10.33664 | 124.01651 | 962 ft | 134 kts | 110° |
| 2026-05-05 16:15 | 10.32043 | 124.02009 | 958 ft | 141 kts | 217° |
| 2026-05-05 16:15 | 10.30606 | 124.00628 | 966 ft | 141 kts | 225° |
| 2026-05-05 16:16 | 10.29207 | 123.99209 | 964 ft | 141 kts | 225° |
| 2026-05-05 16:16 | 10.27804 | 123.97788 | 962 ft | 141 kts | 225° |
| 2026-05-05 16:17 | 10.26111 | 123.96999 | 967 ft | 138 kts | 177° |
| 2026-05-05 16:17 | 10.25152 | 123.97089 | 955 ft | 136 kts | 155° |
| 2026-05-05 16:18 | 10.24788 | 123.98590 | 980 ft | 129 kts | 50° |
| 2026-05-05 16:18 | 10.25488 | 123.99168 | 971 ft | 132 kts | 18° |
| 2026-05-05 16:18 | 10.26737 | 123.98164 | 941 ft | 138 kts | 267° |
| 2026-05-05 16:19 | 10.26296 | 123.97299 | 967 ft | 141 kts | 228° |
| 2026-05-05 16:19 | 10.25610 | 123.96581 | 969 ft | 141 kts | 224° |
| 2026-05-05 16:19 | 10.24203 | 123.95176 | 969 ft | 141 kts | 224° |
| 2026-05-05 16:20 | 10.22961 | 123.93678 | 942 ft | 139 kts | 261° |
| 2026-05-05 16:20 | 10.24005 | 123.92509 | 974 ft | 127 kts | 10° |
| 2026-05-05 16:21 | 10.25759 | 123.92999 | 967 ft | 131 kts | 26° |
| 2026-05-05 16:22 | 10.27714 | 123.94935 | 721 ft | 131 kts | 44° |
| 2026-05-05 16:22 | 10.29026 | 123.96210 | 269 ft | 128 kts | 45° |
| 2026-05-05 16:23 | 10.30209 | 123.97397 | 46 ft | 101 kts | 45° |
| 2026-05-05 16:23 | 10.30791 | 123.97986 | 155 ft | 148 kts | 46° |
| 2026-05-05 16:23 | 10.32374 | 123.99636 | 972 ft | 180 kts | 45° |
| 2026-05-05 16:24 | 10.33243 | 124.00509 | 949 ft | 161 kts | 45° |
| 2026-05-05 16:24 | 10.33977 | 124.01244 | 910 ft | 136 kts | 45° |
| 2026-05-05 16:24 | 10.35295 | 124.02560 | 951 ft | 131 kts | 45° |
| 2026-05-05 16:25 | 10.35954 | 124.03217 | 957 ft | 131 kts | 45° |
| 2026-05-05 16:25 | 10.37256 | 124.04516 | 963 ft | 131 kts | 44° |
| 2026-05-05 16:25 | 10.37913 | 124.05170 | 967 ft | 131 kts | 44° |
| 2026-05-05 16:26 | 10.38263 | 124.06795 | 943 ft | 134 kts | 124° |
| 2026-05-05 16:26 | 10.36912 | 124.08076 | 961 ft | 132 kts | 135° |
| 2026-05-05 16:27 | 10.36222 | 124.08691 | 962 ft | 132 kts | 135° |
| 2026-05-05 16:27 | 10.35532 | 124.09302 | 959 ft | 132 kts | 135° |
| 2026-05-05 16:27 | 10.34836 | 124.09935 | 962 ft | 132 kts | 132° |
| 2026-05-05 16:27 | 10.34103 | 124.10510 | 951 ft | 136 kts | 157° |
| 2026-05-05 16:28 | 10.33168 | 124.10407 | 946 ft | 141 kts | 211° |
| 2026-05-05 16:28 | 10.32418 | 124.09753 | 975 ft | 142 kts | 224° |
| 2026-05-05 16:28 | 10.31700 | 124.09037 | 967 ft | 142 kts | 225° |
| 2026-05-05 16:28 | 10.31000 | 124.08329 | 963 ft | 142 kts | 225° |
| 2026-05-05 16:29 | 10.30289 | 124.07608 | 963 ft | 142 kts | 225° |
| 2026-05-05 16:29 | 10.29584 | 124.06894 | 960 ft | 142 kts | 225° |
| 2026-05-05 16:29 | 10.28886 | 124.06187 | 961 ft | 142 kts | 225° |
| 2026-05-05 16:29 | 10.28172 | 124.05466 | 964 ft | 142 kts | 225° |
| 2026-05-05 16:30 | 10.27463 | 124.04748 | 960 ft | 142 kts | 225° |
| 2026-05-05 16:30 | 10.26862 | 124.03960 | 952 ft | 141 kts | 248° |
| 2026-05-05 16:30 | 10.26550 | 124.03033 | 907 ft | 136 kts | 256° |
| 2026-05-05 16:30 | 10.26296 | 124.02106 | 693 ft | 137 kts | 257° |
| 2026-05-05 16:31 | 10.26045 | 124.01160 | 670 ft | 139 kts | 257° |
| 2026-05-05 16:31 | 10.25893 | 124.00199 | 652 ft | 137 kts | 282° |
| 2026-05-05 16:31 | 10.26354 | 123.99387 | 585 ft | 131 kts | 316° |
| 2026-05-05 16:31 | 10.26985 | 123.98724 | 501 ft | 131 kts | 319° |
| 2026-05-05 16:32 | 10.27636 | 123.98071 | 381 ft | 130 kts | 320° |
| 2026-05-05 16:32 | 10.28291 | 123.97427 | 292 ft | 130 kts | 320° |
| 2026-05-05 16:32 | 10.28985 | 123.96838 | 196 ft | 127 kts | 341° |
| 2026-05-05 16:32 | 10.29783 | 123.96996 | 69 ft | 122 kts | 42° |
| 2026-05-05 16:33 | 10.30325 | 123.97524 | 45 ft | 68 kts | 42° |
| 2026-05-05 16:33 | 10.30500 | 123.97687 | 45 ft | 21 kts | 45° |
| 2026-05-05 16:33 | 10.30605 | 123.97792 | 45 ft | 20 kts | 44° |
| 2026-05-05 16:33 | 10.30679 | 123.97894 | 45 ft | 16 kts | 100° |
| 2026-05-05 16:34 | 10.30607 | 123.97983 | 45 ft | 13 kts | 137° |
| 2026-05-05 16:34 | 10.30541 | 123.97988 | 45 ft | 11 kts | 212° |
| 2026-05-05 16:34 | 10.30380 | 123.97824 | 45 ft | 7 kts | 224° |
| 2026-05-05 16:34 | 10.30368 | 123.97804 | 45 ft | 2 kts | 308° |
| 2026-05-05 16:35 | 10.30379 | 123.97808 | 45 ft | 0 kts | 47° |
| 2026-05-05 16:35 | 10.30388 | 123.97818 | 45 ft | 4 kts | 49° |
| 2026-05-05 16:36 | 10.30415 | 123.97855 | 45 ft | 5 kts | 82° |
| 2026-05-05 16:36 | 10.30393 | 123.97892 | 45 ft | 4 kts | 134° |
| 2026-05-05 16:36 | 10.30383 | 123.97894 | 45 ft | 0 kts | 224° |
| 2026-05-05 16:41 | 10.30380 | 123.97891 | 52 ft | 29 kts | 224° |